createdAt,value
2017-06-13T00:00:06.794Z,76.60
2017-06-13T00:02:35.399Z,76.90
2017-06-13T00:05:03.591Z,76.30
2017-06-13T00:07:31.770Z,76.90
2017-06-13T00:10:00.312Z,77.20
2017-06-13T00:12:28.549Z,77.40
2017-06-13T00:14:57.501Z,76.80
2017-06-13T00:17:26.015Z,76.90
2017-06-13T00:19:54.327Z,76.30
2017-06-13T00:22:22.678Z,77.20
2017-06-13T00:24:51.297Z,76.30
2017-06-13T00:27:19.517Z,75.70
2017-06-13T00:29:47.726Z,76.00
2017-06-13T00:32:16.339Z,76.00
2017-06-13T00:34:44.556Z,76.10
2017-06-13T00:37:12.751Z,76.50
2017-06-13T00:39:41.403Z,77.10
2017-06-13T00:42:09.682Z,76.70
2017-06-13T00:44:37.870Z,76.90
2017-06-13T00:47:07.229Z,77.50
2017-06-13T00:49:35.422Z,77.50
2017-06-13T00:52:03.596Z,77.40
2017-06-13T00:54:32.158Z,77.20
2017-06-13T00:57:00.373Z,76.90
2017-06-13T00:59:28.576Z,77.90
2017-06-13T01:01:57.108Z,77.40
2017-06-13T01:04:25.284Z,76.80
2017-06-13T01:06:54.260Z,77.60
2017-06-13T01:09:22.863Z,76.90
2017-06-13T01:11:51.784Z,77.70
2017-06-13T01:14:19.977Z,77.60
2017-06-13T01:16:48.587Z,77.60
2017-06-13T01:19:16.770Z,78.30
2017-06-13T01:21:44.988Z,78.20
2017-06-13T01:24:13.609Z,78.70
2017-06-13T01:26:41.783Z,78.20
2017-06-13T01:29:10.034Z,78.00
2017-06-13T01:31:38.604Z,78.20
2017-06-13T01:34:06.774Z,77.80
2017-06-13T01:36:35.043Z,78.50
2017-06-13T01:39:03.683Z,77.90
2017-06-13T01:41:31.861Z,77.80
2017-06-13T01:44:00.032Z,78.10
2017-06-13T01:46:28.815Z,78.90
2017-06-13T01:48:56.990Z,78.60
2017-06-13T01:51:25.170Z,78.70
2017-06-13T01:53:57.563Z,78.00
2017-06-13T01:56:26.509Z,78.40
2017-06-13T01:58:55.082Z,79.00
2017-06-13T02:01:23.279Z,78.10
2017-06-13T02:03:51.470Z,78.20
2017-06-13T02:06:20.131Z,78.00
2017-06-13T02:08:48.303Z,77.80
2017-06-13T02:11:16.467Z,78.00
2017-06-13T02:13:45.152Z,78.40
2017-06-13T02:16:13.348Z,78.00
2017-06-13T02:18:41.527Z,78.10
2017-06-13T02:21:10.910Z,77.80
2017-06-13T02:23:39.079Z,77.70
2017-06-13T02:26:07.291Z,78.10
2017-06-13T02:28:35.807Z,78.40
2017-06-13T02:31:04.022Z,77.90
2017-06-13T02:33:32.210Z,78.10
2017-06-13T02:36:00.771Z,78.70
2017-06-13T02:38:28.956Z,78.90
2017-06-13T02:40:57.922Z,79.30
2017-06-13T02:43:26.457Z,78.70
2017-06-13T02:45:54.630Z,78.80
2017-06-13T02:48:22.857Z,78.70
2017-06-13T02:50:51.450Z,78.40
2017-06-13T02:53:19.637Z,78.50
2017-06-13T02:55:47.818Z,78.80
2017-06-13T02:58:17.122Z,78.60
2017-06-13T03:00:45.318Z,78.60
2017-06-13T03:03:13.498Z,78.80
2017-06-13T03:05:42.218Z,78.50
2017-06-13T03:08:10.429Z,78.40
2017-06-13T03:10:39.376Z,79.10
2017-06-13T03:13:07.956Z,79.80
2017-06-13T03:15:36.134Z,78.50
2017-06-13T03:18:04.310Z,78.90
2017-06-13T03:20:33.097Z,79.10
2017-06-13T03:23:01.307Z,78.40
2017-06-13T03:25:30.259Z,79.30
2017-06-13T03:27:58.863Z,79.20
2017-06-13T03:30:27.041Z,79.20
2017-06-13T03:32:56.021Z,79.10
2017-06-13T03:35:24.646Z,78.90
2017-06-13T03:37:52.809Z,79.10
2017-06-13T03:40:21.752Z,78.40
2017-06-13T03:42:50.435Z,78.40
2017-06-13T03:45:18.698Z,78.50
2017-06-13T03:47:46.930Z,78.40
2017-06-13T03:50:16.405Z,78.30
2017-06-13T03:52:44.619Z,78.70
2017-06-13T03:55:12.857Z,78.40
2017-06-13T03:57:42.841Z,77.80
2017-06-13T04:00:11.166Z,78.60
2017-06-13T04:02:39.356Z,77.90
2017-06-13T04:05:08.005Z,78.40
2017-06-13T04:07:36.198Z,78.70
2017-06-13T04:10:04.473Z,78.60
2017-06-13T04:12:33.050Z,78.20
2017-06-13T04:15:02.078Z,78.20
2017-06-13T04:17:30.350Z,78.10
2017-06-13T04:19:58.919Z,78.80
2017-06-13T04:22:27.115Z,77.90
2017-06-13T04:24:55.343Z,78.10
2017-06-13T04:27:24.638Z,78.40
2017-06-13T04:29:52.872Z,78.40
2017-06-13T04:32:21.169Z,78.80
2017-06-13T04:34:50.198Z,78.40
2017-06-13T04:37:18.377Z,78.20
2017-06-13T04:39:46.578Z,78.70
2017-06-13T04:42:15.101Z,78.60
2017-06-13T04:44:43.282Z,78.40
2017-06-13T04:47:11.438Z,78.50
2017-06-13T04:49:40.069Z,78.60
2017-06-13T04:52:08.367Z,78.20
2017-06-13T04:54:36.619Z,78.20
2017-06-13T04:57:05.182Z,78.20
2017-06-13T04:59:34.194Z,78.40
2017-06-13T05:02:02.369Z,78.40
2017-06-13T05:04:31.006Z,78.30
2017-06-13T05:06:59.199Z,78.40
2017-06-13T05:09:27.437Z,79.60
2017-06-13T05:11:55.978Z,79.80
2017-06-13T05:14:24.706Z,79.50
2017-06-13T05:16:52.900Z,79.70
2017-06-13T05:19:21.499Z,78.80
2017-06-13T05:21:49.701Z,79.10
2017-06-13T05:24:17.911Z,78.40
2017-06-13T05:26:46.451Z,79.60
2017-06-13T05:29:14.630Z,79.00
2017-06-13T05:31:42.919Z,78.90
2017-06-13T05:34:11.422Z,78.30
2017-06-13T05:36:39.642Z,78.20
2017-06-13T05:39:07.844Z,77.10
2017-06-13T05:41:36.770Z,78.00
2017-06-13T05:44:05.015Z,77.10
2017-06-13T05:46:33.178Z,77.40
2017-06-13T05:49:01.714Z,77.10
2017-06-13T05:51:30.683Z,77.10
2017-06-13T05:53:58.866Z,77.10
2017-06-13T05:56:27.439Z,78.10
2017-06-13T05:58:55.665Z,78.60
2017-06-13T06:01:23.879Z,78.40
2017-06-13T06:03:52.461Z,77.70
2017-06-13T06:06:20.659Z,78.50
2017-06-13T06:08:48.873Z,79.20
2017-06-13T06:11:17.516Z,81.20
2017-06-13T06:13:45.710Z,80.40
2017-06-13T06:16:13.929Z,81.10
2017-06-13T06:18:42.633Z,81.20
2017-06-13T06:21:10.826Z,81.30
2017-06-13T06:23:39.095Z,80.50
2017-06-13T06:26:07.755Z,80.90
2017-06-13T06:28:35.943Z,81.50
2017-06-13T06:31:04.962Z,79.40
2017-06-13T06:33:33.795Z,79.40
2017-06-13T06:36:01.995Z,79.60
2017-06-13T06:38:30.196Z,79.30
2017-06-13T06:40:59.667Z,78.00
2017-06-13T06:43:27.872Z,77.80
2017-06-13T06:45:56.065Z,78.40
2017-06-13T06:48:25.416Z,79.70
2017-06-13T06:50:53.604Z,79.70
2017-06-13T06:53:21.777Z,77.80
2017-06-13T06:55:50.949Z,78.20
2017-06-13T06:58:19.251Z,78.00
2017-06-13T07:00:48.286Z,79.30
2017-06-13T07:03:16.811Z,79.90
2017-06-13T07:05:45.081Z,79.70
2017-06-13T07:08:13.319Z,79.00
2017-06-13T07:10:42.470Z,78.80
2017-06-13T07:13:10.787Z,80.20
2017-06-13T07:15:39.327Z,79.10
2017-06-13T07:18:08.370Z,79.80
2017-06-13T07:20:36.940Z,81.40
2017-06-13T07:23:05.238Z,81.40
2017-06-13T07:25:33.758Z,81.40
2017-06-13T07:28:02.595Z,81.40
2017-06-13T07:30:31.233Z,81.50
2017-06-13T07:32:59.856Z,81.70
2017-06-13T07:35:28.186Z,80.60
2017-06-13T07:37:57.913Z,81.70
2017-06-13T07:40:26.754Z,81.70
2017-06-13T07:42:55.337Z,81.50
2017-06-13T07:45:24.346Z,81.50
2017-06-13T07:47:53.170Z,82.40
2017-06-13T07:50:21.834Z,81.60
2017-06-13T07:52:50.957Z,83.30
2017-06-13T07:55:20.049Z,83.00
2017-06-13T07:57:48.525Z,82.20
2017-06-13T08:00:17.401Z,81.80
2017-06-13T08:02:47.072Z,81.90
2017-06-13T08:05:15.881Z,81.90
2017-06-13T08:07:44.225Z,81.80
2017-06-13T08:10:13.902Z,80.70
2017-06-13T08:12:42.551Z,80.80
2017-06-13T08:15:12.403Z,81.90
2017-06-13T08:17:42.227Z,80.30
2017-06-13T08:20:10.427Z,80.30
2017-06-13T08:22:38.591Z,80.20
2017-06-13T08:25:07.946Z,78.20
2017-06-13T08:27:36.569Z,80.10
2017-06-13T08:30:05.691Z,76.70
2017-06-13T08:32:34.299Z,76.60
2017-06-13T08:35:02.946Z,77.10
2017-06-13T08:37:31.480Z,78.10
2017-06-13T08:40:00.022Z,77.00
2017-06-13T08:42:28.296Z,77.10
2017-06-13T08:44:57.433Z,77.00
2017-06-13T08:47:26.374Z,77.90
2017-06-13T08:49:54.565Z,78.40
2017-06-13T08:52:22.808Z,78.10
2017-06-13T08:54:54.174Z,78.60
2017-06-13T08:57:22.570Z,79.50
2017-06-13T08:59:51.708Z,79.70
2017-06-13T09:02:20.627Z,78.90
2017-06-13T09:17:39.772Z,79.40
2017-06-13T09:20:08.468Z,78.10
2017-06-13T09:22:37.865Z,76.90
2017-06-13T09:25:07.130Z,76.70
2017-06-13T09:27:36.066Z,75.90
2017-06-13T09:30:04.629Z,76.50
2017-06-13T09:32:33.706Z,73.90
2017-06-13T09:35:02.595Z,75.70
2017-06-13T09:37:30.998Z,77.20
2017-06-13T09:40:00.595Z,77.20
2017-06-13T09:42:28.791Z,77.50
2017-06-13T09:44:58.966Z,76.00
2017-06-13T09:47:28.190Z,75.90
2017-06-13T09:49:56.971Z,71.50
2017-06-13T09:52:25.768Z,71.50
2017-06-13T09:54:55.101Z,72.00
2017-06-13T09:57:25.440Z,72.10
2017-06-13T09:59:53.692Z,72.00
2017-06-13T10:02:22.307Z,70.80
2017-06-13T10:04:50.811Z,70.60
2017-06-13T10:07:19.076Z,71.10
2017-06-13T10:09:48.077Z,72.10
2017-06-13T10:12:16.885Z,72.50
2017-06-13T10:14:45.921Z,71.50
2017-06-13T10:17:14.479Z,70.70
2017-06-13T10:19:43.194Z,70.60
2017-06-13T10:22:12.229Z,71.10
2017-06-13T10:24:43.118Z,70.70
2017-06-13T10:27:11.301Z,69.90
2017-06-13T10:29:40.262Z,72.00
2017-06-13T10:32:08.882Z,71.90
2017-06-13T10:34:37.288Z,72.70
2017-06-13T10:37:05.455Z,73.20
2017-06-13T10:39:33.981Z,73.90
2017-06-13T10:42:02.157Z,73.00
2017-06-13T10:44:30.467Z,73.90
2017-06-13T10:46:59.941Z,75.80
2017-06-13T10:49:28.120Z,75.80
2017-06-13T10:51:56.307Z,77.40
2017-06-13T10:54:25.621Z,80.40
2017-06-13T10:56:53.790Z,80.30
2017-06-13T10:59:21.986Z,79.70
2017-06-13T11:01:50.612Z,79.80
2017-06-13T11:04:18.815Z,78.70
2017-06-13T11:06:47.035Z,78.50
2017-06-13T11:09:15.552Z,80.10
2017-06-13T11:11:43.856Z,78.30
2017-06-13T11:14:12.015Z,79.30
2017-06-13T11:16:40.664Z,77.50
2017-06-13T11:19:08.836Z,75.10
2017-06-13T11:21:37.048Z,74.80
2017-06-13T11:24:05.586Z,75.00
2017-06-13T11:26:33.778Z,75.30
2017-06-13T11:29:01.946Z,73.60
2017-06-13T11:31:31.336Z,71.00
2017-06-13T11:33:59.575Z,71.00
2017-06-13T11:36:27.764Z,72.60
2017-06-13T11:38:56.371Z,72.60
2017-06-13T11:41:24.576Z,71.10
2017-06-13T11:43:53.533Z,70.30
2017-06-13T11:46:22.123Z,70.30
2017-06-13T11:48:50.339Z,70.10
2017-06-13T11:51:18.537Z,68.10
2017-06-13T11:53:47.244Z,68.30
2017-06-13T11:56:15.409Z,68.70
2017-06-13T11:58:43.598Z,66.80
2017-06-13T12:01:12.211Z,69.80
2017-06-13T12:03:41.184Z,68.30
2017-06-13T12:06:09.366Z,68.40
2017-06-13T12:08:37.953Z,67.60
2017-06-13T12:11:06.150Z,68.00
2017-06-13T12:13:34.325Z,68.40
2017-06-13T12:16:03.015Z,67.40
2017-06-13T12:18:31.200Z,66.70
2017-06-13T12:20:59.591Z,67.60
2017-06-13T12:23:28.103Z,66.20
2017-06-13T12:25:56.279Z,68.10
2017-06-13T12:28:24.456Z,66.70
2017-06-13T12:30:53.845Z,68.00
2017-06-13T12:33:22.327Z,67.70
2017-06-13T12:35:50.505Z,67.70
2017-06-13T12:38:19.093Z,69.40
2017-06-13T12:40:47.289Z,67.90
2017-06-13T12:43:15.494Z,68.70
2017-06-13T12:45:44.219Z,66.40
2017-06-13T12:48:12.978Z,63.90
2017-06-13T12:50:41.161Z,63.30
2017-06-13T12:53:09.777Z,61.80
2017-06-13T12:55:37.982Z,64.00
2017-06-13T12:58:06.187Z,63.90
2017-06-13T13:00:34.847Z,64.30
2017-06-13T13:03:03.054Z,64.70
2017-06-13T13:05:31.270Z,62.70
2017-06-13T13:07:59.797Z,64.10
2017-06-13T13:10:28.002Z,62.60
2017-06-13T13:12:56.212Z,63.70
2017-06-13T13:15:24.757Z,64.40
2017-06-13T13:20:28.675Z,64.00
2017-06-13T13:22:56.846Z,63.90
2017-06-13T13:25:25.034Z,64.30
2017-06-13T13:27:54.396Z,65.30
2017-06-13T13:30:22.617Z,65.20
2017-06-13T13:32:50.834Z,64.90
2017-06-13T13:35:20.166Z,65.30
2017-06-13T13:37:48.330Z,66.80
2017-06-13T13:40:16.528Z,64.70
2017-06-13T13:42:45.063Z,62.90
2017-06-13T13:45:13.323Z,63.60
2017-06-13T13:47:41.526Z,65.00
2017-06-13T13:50:11.694Z,64.90
2017-06-13T13:52:40.610Z,63.70
2017-06-13T13:55:08.840Z,63.70
2017-06-13T13:57:38.219Z,64.70
2017-06-13T14:00:06.440Z,64.60
2017-06-13T14:02:34.669Z,64.30
2017-06-13T14:05:03.216Z,65.00
2017-06-13T14:07:31.491Z,65.30
2017-06-13T14:09:59.674Z,65.70
2017-06-13T14:12:28.222Z,65.40
2017-06-13T14:14:56.453Z,66.70
2017-06-13T14:17:24.614Z,66.10
2017-06-13T14:19:53.132Z,66.40
2017-06-13T14:22:21.552Z,65.40
2017-06-13T14:24:49.951Z,66.00
2017-06-13T14:27:18.474Z,65.40
2017-06-13T14:29:46.649Z,66.70
2017-06-13T14:32:14.832Z,66.70
2017-06-13T14:34:43.517Z,66.40
2017-06-13T14:37:11.710Z,66.10
2017-06-13T14:39:39.995Z,66.50
2017-06-13T14:42:08.691Z,66.00
2017-06-13T14:44:36.894Z,64.40
2017-06-13T14:47:06.063Z,63.20
2017-06-13T14:49:34.600Z,62.50
2017-06-13T14:52:02.811Z,64.30
2017-06-13T14:54:31.237Z,63.60
2017-06-13T14:56:59.890Z,63.20
2017-06-13T14:59:28.973Z,62.30
2017-06-13T15:01:57.152Z,64.00
2017-06-13T15:04:25.746Z,65.70
2017-06-13T15:06:53.924Z,64.30
2017-06-13T15:09:22.169Z,65.70
2017-06-13T15:11:50.849Z,66.00
2017-06-13T15:14:19.046Z,66.50
2017-06-13T15:16:47.290Z,66.10
2017-06-13T15:19:15.813Z,65.90
2017-06-13T15:21:43.996Z,64.90
2017-06-13T15:24:12.268Z,66.50
2017-06-13T15:26:40.847Z,64.20
2017-06-13T15:29:09.115Z,64.70
2017-06-13T15:31:37.297Z,64.20
2017-06-13T15:34:05.885Z,63.70
2017-06-13T15:36:34.131Z,65.90
2017-06-13T15:39:02.380Z,65.40
2017-06-13T15:41:30.925Z,66.30
2017-06-13T15:43:59.870Z,67.30
2017-06-13T15:46:28.044Z,67.30
2017-06-13T15:48:56.601Z,67.10
2017-06-13T15:51:24.812Z,67.70
2017-06-13T15:53:53.027Z,67.10
2017-06-13T15:56:22.399Z,66.60
2017-06-13T15:58:50.594Z,66.60
2017-06-13T16:01:19.610Z,66.00
2017-06-13T16:03:48.168Z,66.00
2017-06-13T16:06:17.162Z,66.80
2017-06-13T16:08:46.134Z,67.50
2017-06-13T16:11:15.530Z,67.00
2017-06-13T16:13:43.711Z,67.00
2017-06-13T16:16:11.909Z,67.00
2017-06-13T16:18:40.480Z,67.70
2017-06-13T16:21:08.718Z,64.90
2017-06-13T16:23:37.911Z,66.20
2017-06-13T16:26:06.501Z,65.60
2017-06-13T16:28:34.686Z,66.10
2017-06-13T16:31:02.894Z,66.20
2017-06-13T16:33:31.661Z,66.30
2017-06-13T16:35:59.862Z,65.10
2017-06-13T16:38:28.016Z,64.70
2017-06-13T16:40:57.294Z,66.20
2017-06-13T16:43:25.507Z,66.20
2017-06-13T16:45:53.734Z,66.90
2017-06-13T16:48:22.663Z,66.30
2017-06-13T16:50:51.619Z,65.60
2017-06-13T16:53:19.798Z,65.60
2017-06-13T16:55:48.327Z,65.30
2017-06-13T16:58:16.506Z,64.60
2017-06-13T17:00:45.689Z,65.40
2017-06-13T17:03:14.346Z,65.60
2017-06-13T17:05:42.538Z,66.60
2017-06-13T17:08:10.860Z,66.20
2017-06-13T17:10:39.478Z,66.70
2017-06-13T17:13:08.504Z,66.00
2017-06-13T17:15:36.689Z,66.00
2017-06-13T17:18:05.326Z,66.30
2017-06-13T17:20:33.578Z,66.80
2017-06-13T17:23:01.831Z,67.40
2017-06-13T17:25:30.393Z,67.00
2017-06-13T17:27:58.602Z,66.60
2017-06-13T17:30:26.805Z,67.70
2017-06-13T17:32:55.373Z,68.20
2017-06-13T17:35:23.613Z,68.30
2017-06-13T17:37:51.815Z,67.50
2017-06-13T17:40:20.386Z,68.50
2017-06-13T17:42:48.600Z,68.40
2017-06-13T17:45:17.592Z,68.70
2017-06-13T17:47:46.939Z,68.70
2017-06-13T17:50:15.194Z,68.70
2017-06-13T17:52:43.408Z,68.00
2017-06-13T17:55:11.934Z,67.10
2017-06-13T17:57:40.124Z,66.10
2017-06-13T18:00:09.127Z,65.90
2017-06-13T18:02:37.786Z,67.50
2017-06-13T18:05:06.074Z,67.40
2017-06-13T18:07:34.307Z,67.40
2017-06-13T18:10:02.880Z,66.90
2017-06-13T18:12:31.110Z,66.50
2017-06-13T18:14:59.319Z,65.80
2017-06-13T18:17:27.800Z,66.90
2017-06-13T18:19:55.999Z,67.60
2017-06-13T18:22:24.243Z,69.10
2017-06-13T18:24:52.683Z,67.90
2017-06-13T18:27:20.935Z,67.20
2017-06-13T18:29:49.959Z,70.00
2017-06-13T18:32:18.329Z,69.90
2017-06-13T18:34:46.545Z,70.70
2017-06-13T18:37:15.225Z,71.30
2017-06-13T18:39:43.637Z,72.60
2017-06-13T18:42:11.935Z,72.30
2017-06-13T18:44:40.145Z,73.30
2017-06-13T18:47:08.617Z,73.10
2017-06-13T18:49:36.826Z,73.20
2017-06-13T18:52:05.067Z,73.10
2017-06-13T18:54:33.447Z,73.00
2017-06-13T18:57:01.646Z,73.40
2017-06-13T18:59:29.907Z,73.50
2017-06-13T19:01:58.323Z,74.20
2017-06-13T19:04:26.536Z,74.20
2017-06-13T19:06:54.714Z,75.10
2017-06-13T19:09:23.182Z,74.40
2017-06-13T19:11:51.394Z,74.40
2017-06-13T19:14:19.678Z,73.90
2017-06-13T19:16:48.127Z,73.70
2017-06-13T19:19:16.349Z,74.00
2017-06-13T19:21:44.573Z,74.00
2017-06-13T19:24:12.983Z,74.20
2017-06-13T19:26:41.247Z,74.10
2017-06-13T19:29:09.481Z,74.30
2017-06-13T19:31:37.867Z,74.50
2017-06-13T19:34:06.076Z,74.80
2017-06-13T19:36:34.300Z,74.60
2017-06-13T19:39:02.693Z,75.30
2017-06-13T19:41:31.004Z,75.40
2017-06-13T19:43:59.225Z,76.00
2017-06-13T19:46:27.718Z,75.40
2017-06-13T19:48:55.964Z,75.70
2017-06-13T19:51:24.988Z,75.50
2017-06-13T19:53:53.531Z,75.50
2017-06-13T19:56:21.757Z,75.90
2017-06-13T19:58:50.771Z,75.80
2017-06-13T20:01:19.226Z,76.10
2017-06-13T20:03:48.164Z,75.80
2017-06-13T20:06:16.379Z,75.70
2017-06-13T20:21:43.641Z,75.60
2017-06-13T20:24:11.834Z,77.00
2017-06-13T20:26:40.007Z,76.80
2017-06-13T20:29:14.249Z,77.10
2017-06-13T20:31:43.217Z,77.00
2017-06-13T20:34:11.463Z,76.80
2017-06-13T20:36:39.892Z,77.10
2017-06-13T20:39:08.827Z,77.20
2017-06-13T20:41:37.057Z,77.10
2017-06-13T20:44:06.241Z,77.20
2017-06-13T20:46:34.498Z,77.10
2017-06-13T20:49:02.684Z,76.90
2017-06-13T20:51:31.164Z,77.00
2017-06-13T20:53:59.346Z,76.40
2017-06-13T20:56:27.536Z,75.90
2017-06-13T20:58:56.726Z,76.50
2017-06-13T21:01:24.960Z,76.40
2017-06-13T21:03:53.283Z,75.80
2017-06-13T21:06:21.675Z,76.40
2017-06-13T21:08:49.896Z,76.20
2017-06-13T21:11:18.117Z,76.50
2017-06-13T21:13:47.227Z,76.70
2017-06-13T21:16:15.434Z,76.60
2017-06-13T21:18:43.614Z,77.00
2017-06-13T21:21:12.025Z,76.50
2017-06-13T21:23:40.985Z,76.50
2017-06-13T21:26:09.210Z,76.40
2017-06-13T21:28:37.766Z,76.50
2017-06-13T21:31:05.985Z,76.40
2017-06-13T21:33:34.264Z,76.50
2017-06-13T21:36:03.428Z,76.70
2017-06-13T21:38:31.634Z,76.50
2017-06-13T21:40:59.928Z,77.40
2017-06-13T21:43:28.322Z,77.50
2017-06-13T21:45:56.520Z,77.30
2017-06-13T21:48:25.512Z,78.10
2017-06-13T21:50:54.894Z,77.90
2017-06-13T21:53:23.084Z,77.80
2017-06-13T21:55:52.157Z,78.40
2017-06-13T21:58:20.566Z,78.40
2017-06-13T22:00:49.720Z,78.80
2017-06-13T22:03:17.933Z,78.80
2017-06-13T22:05:46.327Z,78.50
2017-06-13T22:08:14.544Z,78.60
2017-06-13T22:10:42.736Z,79.30
2017-06-13T22:13:11.167Z,77.90
2017-06-13T22:15:39.358Z,78.40
2017-06-13T22:18:07.590Z,79.00
2017-06-13T22:20:36.006Z,78.40
2017-06-13T22:23:04.191Z,77.90
2017-06-13T22:25:32.416Z,78.00
2017-06-13T22:28:00.838Z,78.50
2017-06-13T22:30:29.059Z,78.20
2017-06-13T22:32:57.255Z,78.30
2017-06-13T22:35:25.656Z,78.40
2017-06-13T22:37:54.097Z,79.70
2017-06-13T22:40:23.053Z,78.10
2017-06-13T22:42:51.469Z,78.10
2017-06-13T22:45:19.662Z,77.80
2017-06-13T22:47:47.870Z,77.70
2017-06-13T22:50:16.270Z,77.80
2017-06-13T22:52:44.452Z,78.00
2017-06-13T22:55:13.466Z,78.00
2017-06-13T22:57:41.823Z,78.00
2017-06-13T23:00:10.786Z,78.90
2017-06-13T23:02:38.991Z,78.20
2017-06-13T23:05:07.413Z,78.50
2017-06-13T23:07:35.649Z,78.60
2017-06-13T23:10:03.850Z,78.90
2017-06-13T23:12:32.222Z,78.80
2017-06-13T23:15:00.435Z,78.50
2017-06-13T23:17:28.612Z,78.40
2017-06-13T23:19:56.982Z,78.20
2017-06-13T23:22:25.179Z,78.50
2017-06-13T23:24:53.374Z,78.50
2017-06-13T23:27:21.738Z,78.30
2017-06-13T23:29:49.938Z,78.70
2017-06-13T23:32:18.149Z,78.10
2017-06-13T23:34:46.503Z,78.40
2017-06-13T23:37:14.701Z,78.70
2017-06-13T23:39:42.877Z,78.60
2017-06-13T23:42:11.216Z,78.60
2017-06-13T23:44:39.390Z,79.50
2017-06-13T23:47:07.613Z,78.70
2017-06-13T23:49:35.971Z,78.60
2017-06-13T23:52:04.186Z,78.70
2017-06-13T23:54:32.365Z,78.90
2017-06-13T23:57:01.500Z,78.80
2017-06-13T23:59:29.724Z,78.70
